Time;durP1;ratioP1;P1;durP2;ratioP2;P2;SDS_P1;SDS_P2;PMS_P1;PMS_P2;Temp;Humidity;BMP_temperature;BMP_pressure;BME280_temperature;BME280_humidity;BME280_pressure;Samples;Min_cycle;Max_cycle;Signal;HPM_P1;HPM_P2
2023/09/02 00:05:14;;;;;;;9.18;4.68;;;26.10;39.10;;;;;;21007664;28;20044;-58
2023/09/02 00:15:16;;;;;;;12.90;5.00;;;26.00;38.80;;;;;;21006400;28;20046;-57
2023/09/02 00:25:16;;;;;;;14.80;5.40;;;26.00;38.90;;;;;;21004484;28;20052;-58
2023/09/02 00:35:17;;;;;;;9.70;4.90;;;25.80;38.70;;;;;;21005163;28;20060;-58
2023/09/02 00:45:21;;;;;;;9.40;4.60;;;25.70;38.60;;;;;;21004420;28;20048;-59
2023/09/02 00:55:22;;;;;;;15.07;4.63;;;25.70;38.80;;;;;;21003402;28;20516;-57
2023/09/02 01:05:23;;;;;;;13.73;6.00;;;25.60;38.90;;;;;;21002585;28;20041;-59
2023/09/02 01:15:24;;;;;;;12.83;4.70;;;25.50;39.30;;;;;;21000515;28;20041;-57
2023/09/02 01:25:51;;;;;;;10.30;4.10;;;25.30;39.80;;;;;;21000033;28;20482;-57
2023/09/02 01:35:53;;;;;;;9.45;4.80;;;25.30;39.70;;;;;;20999874;28;20489;-59
2023/09/02 01:45:53;;;;;;;10.57;4.35;;;25.10;40.10;;;;;;20997964;28;20044;-58
2023/09/02 01:55:56;;;;;;;10.47;4.90;;;25.10;40.40;;;;;;20998648;28;20477;-57
2023/09/02 02:05:58;;;;;;;9.02;5.38;;;24.90;43.70;;;;;;20996323;28;20043;-58
2023/09/02 02:15:59;;;;;;;10.45;4.70;;;24.60;47.20;;;;;;20996467;28;20044;-61
2023/09/02 02:26:04;;;;;;;14.48;4.57;;;24.40;48.60;;;;;;20997524;28;20482;-57
2023/09/02 02:36:05;;;;;;;8.02;4.68;;;24.30;49.90;;;;;;20996374;28;20132;-60
2023/09/02 02:46:06;;;;;;;13.93;5.90;;;24.20;51.00;;;;;;20996953;28;20052;-57
2023/09/02 02:56:07;;;;;;;7.40;4.32;;;24.00;51.40;;;;;;20996505;28;20060;-57
2023/09/02 03:06:08;;;;;;;7.75;4.47;;;23.80;52.30;;;;;;20996282;28;20072;-58
2023/09/02 03:16:08;;;;;;;12.10;4.05;;;23.90;52.30;;;;;;20994292;28;20378;-58
2023/09/02 03:26:18;;;;;;;11.23;4.97;;;23.80;52.50;;;;;;21010709;28;20480;-57
2023/09/02 03:36:19;;;;;;;12.65;7.63;;;23.80;48.90;;;;;;21009570;28;20088;-57
2023/09/02 03:46:22;;;;;;;9.60;3.92;;;23.80;45.10;;;;;;21009815;28;20083;-57
2023/09/02 03:56:22;;;;;;;;;;;24.00;43.60;;;;;;21008473;28;20410;-58
2023/09/02 04:06:23;;;;;;;7.63;3.57;;;23.90;43.20;;;;;;21007659;28;19935;-58
2023/09/02 04:16:24;;;;;;;4.55;3.53;;;23.90;41.70;;;;;;21005690;28;20376;-58
2023/09/02 04:26:25;;;;;;;8.85;3.67;;;23.90;41.10;;;;;;21006907;28;20111;-58
2023/09/02 04:36:26;;;;;;;8.07;3.70;;;23.70;41.60;;;;;;21005352;28;20102;-57
2023/09/02 04:46:27;;;;;;;6.78;3.08;;;23.60;41.40;;;;;;21005029;28;20044;-58
2023/09/02 04:56:28;;;;;;;5.88;3.13;;;23.60;41.10;;;;;;21004278;28;20041;-57
2023/09/02 05:06:28;;;;;;;6.38;3.17;;;23.40;41.50;;;;;;21001987;28;20040;-58
2023/09/02 05:16:29;;;;;;;5.60;3.53;;;23.40;41.70;;;;;;21002459;28;20057;-59
2023/09/02 05:26:30;;;;;;;6.57;2.42;;;23.40;41.80;;;;;;21000782;28;20051;-58
2023/09/02 05:36:31;;;;;;;20.92;14.10;;;23.20;42.10;;;;;;20999567;28;20091;-57
2023/09/02 05:46:31;;;;;;;6.05;2.88;;;23.20;42.00;;;;;;20998883;28;20076;-59
2023/09/02 05:56:34;;;;;;;7.75;2.58;;;23.20;43.40;;;;;;20998533;28;20048;-57
2023/09/02 06:06:34;;;;;;;;;;;23.20;45.70;;;;;;20998699;28;20123;-57
2023/09/02 06:16:35;;;;;;;6.93;2.97;;;23.30;46.90;;;;;;20997469;28;19971;-57
2023/09/02 06:26:36;;;;;;;6.15;3.17;;;23.20;47.10;;;;;;20995550;28;20083;-58
2023/09/02 06:36:37;;;;;;;8.07;3.92;;;23.20;45.80;;;;;;20996038;28;20605;-59
2023/09/02 06:46:41;;;;;;;10.57;3.90;;;23.20;50.00;;;;;;20996089;28;20080;-57
2023/09/02 06:56:41;;;;;;;8.18;3.30;;;23.00;51.70;;;;;;21006227;28;20059;-58
2023/09/02 07:06:42;;;;;;;8.05;3.25;;;22.90;50.70;;;;;;21012401;28;20045;-57
2023/09/02 07:16:43;;;;;;;7.95;3.60;;;22.90;51.70;;;;;;21011313;28;20052;-57
2023/09/02 07:26:44;;;;;;;5.90;2.97;;;22.80;50.00;;;;;;21010561;28;20043;-58
2023/09/02 07:36:44;;;;;;;8.07;3.28;;;22.70;48.50;;;;;;21008756;28;20048;-59
2023/09/02 07:46:45;;;;;;;12.63;4.50;;;22.60;50.90;;;;;;21008910;28;20052;-58
2023/09/02 07:56:46;;;;;;;10.02;4.60;;;22.30;59.50;;;;;;21007879;28;20589;-58
2023/09/02 08:06:46;;;;;;;10.70;4.68;;;22.00;61.20;;;;;;21006597;28;20072;-58
2023/09/02 08:16:47;;;;;;;9.40;5.13;;;21.70;62.10;;;;;;21006597;28;20079;-59
2023/09/02 08:26:48;;;;;;;6.30;4.78;;;21.70;62.30;;;;;;21005387;28;20068;-60
2023/09/02 08:36:49;;;;;;;10.68;5.28;;;21.60;58.50;;;;;;21004196;28;20048;-59
2023/09/02 08:46:51;;;;;;;10.27;5.68;;;23.40;55.60;;;;;;21002658;28;20055;-57
2023/09/02 08:56:52;;;;;;;9.25;5.50;;;24.20;55.20;;;;;;21003285;28;20048;-57
2023/09/02 09:06:53;;;;;;;36.30;9.95;;;24.60;54.60;;;;;;21002159;28;20056;-62
2023/09/02 09:16:56;;;;;;;15.60;7.50;;;24.60;55.50;;;;;;20944918;28;20041;-58
2023/09/02 09:26:59;;;;;;;11.13;5.00;;;24.20;55.80;;;;;;20990813;28;20087;-59
2023/09/02 09:37:00;;;;;;;11.25;5.05;;;24.20;54.40;;;;;;20999629;28;20064;-59
2023/09/02 09:47:01;;;;;;;9.45;4.78;;;23.90;56.70;;;;;;20998754;28;20045;-62
2023/09/02 09:57:02;;;;;;;8.73;4.20;;;24.60;54.40;;;;;;20998203;28;20040;-59
2023/09/02 10:07:03;;;;;;;6.13;2.65;;;24.60;56.10;;;;;;20996799;28;20048;-58
2023/09/02 10:17:06;;;;;;;7.07;2.90;;;24.20;54.50;;;;;;20988617;28;20076;-57
2023/09/02 10:27:12;;;;;;;;;;;24.20;53.30;;;;;;20983911;28;20064;-59
2023/09/02 10:37:16;;;;;;;5.05;2.80;;;24.10;52.60;;;;;;20935830;28;19921;-64
2023/09/02 10:47:17;;;;;;;10.52;3.15;;;24.30;50.40;;;;;;20911695;28;20052;-60
2023/09/02 10:57:18;;;;;;;6.82;2.30;;;23.90;51.60;;;;;;20925160;28;20048;-59
2023/09/02 11:07:24;;;;;;;6.63;2.55;;;24.00;51.40;;;;;;20984688;28;20131;-58
2023/09/02 11:17:26;;;;;;;4.43;2.35;;;23.80;52.10;;;;;;20963979;28;20036;-58
2023/09/02 11:27:44;;;;;;;5.30;2.33;;;23.10;54.10;;;;;;20986613;28;20052;-57
2023/09/02 11:37:45;;;;;;;10.00;2.58;;;22.30;55.90;;;;;;20986213;28;20045;-58
2023/09/02 11:47:50;;;;;;;5.57;2.53;;;22.20;56.70;;;;;;21008190;28;20048;-57
2023/09/02 11:57:51;;;;;;;4.15;2.17;;;21.70;57.20;;;;;;21006192;28;20052;-57
2023/09/02 12:07:52;;;;;;;4.43;2.10;;;21.70;57.30;;;;;;21007141;28;20139;-57
2023/09/02 12:17:53;;;;;;;4.03;2.10;;;21.60;57.00;;;;;;21006369;28;20044;-57
2023/09/02 12:28:09;;;;;;;5.25;2.40;;;21.40;57.90;;;;;;21005505;28;20448;-57
2023/09/02 12:38:09;;;;;;;7.35;2.20;;;21.50;57.80;;;;;;21003944;28;20131;-57
2023/09/02 12:48:10;;;;;;;6.32;2.72;;;21.30;59.20;;;;;;21004238;28;20072;-57
2023/09/02 12:58:11;;;;;;;3.10;2.15;;;21.30;60.20;;;;;;21002710;28;20056;-57
2023/09/02 13:08:12;;;;;;;6.78;2.60;;;21.20;61.10;;;;;;21000646;28;20048;-57
2023/09/02 13:18:13;;;;;;;4.30;2.05;;;21.20;60.70;;;;;;21000998;28;20124;-58
2023/09/02 13:28:14;;;;;;;4.43;2.28;;;21.00;61.10;;;;;;20999243;28;20079;-57
2023/09/02 13:38:21;;;;;;;5.28;2.13;;;20.90;60.80;;;;;;20999124;28;20060;-57
2023/09/02 13:48:22;;;;;;;3.38;2.00;;;20.70;62.70;;;;;;20998974;28;20048;-58
2023/09/02 13:58:24;;;;;;;3.45;1.85;;;20.50;62.70;;;;;;20996835;28;20138;-57
2023/09/02 14:08:38;;;;;;;3.78;1.85;;;20.60;62.10;;;;;;20997656;28;20123;-58
2023/09/02 14:18:38;;;;;;;2.70;1.52;;;20.40;62.40;;;;;;20996591;28;20044;-57
2023/09/02 14:28:39;;;;;;;3.10;1.88;;;20.30;63.00;;;;;;20996597;28;20082;-57
2023/09/02 14:38:42;;;;;;;2.95;1.50;;;20.50;62.40;;;;;;20994507;28;20135;-58
2023/09/02 14:48:42;;;;;;;2.80;2.17;;;20.40;62.50;;;;;;20995756;28;20094;-57
2023/09/02 14:58:43;;;;;;;2.80;1.80;;;20.40;62.40;;;;;;20995645;28;20080;-56
2023/09/02 15:08:44;;;;;;;3.53;1.77;;;20.50;62.00;;;;;;20994118;28;20040;-56
2023/09/02 15:18:46;;;;;;;4.28;1.88;;;21.00;60.60;;;;;;21005633;28;20482;-56
2023/09/02 15:28:47;;;;;;;5.63;1.92;;;21.30;59.30;;;;;;21008839;28;20049;-57
2023/09/02 15:38:48;;;;;;;3.38;1.90;;;21.30;58.50;;;;;;21008560;28;20048;-57
2023/09/02 15:48:49;;;;;;;3.38;2.10;;;21.50;58.60;;;;;;21025827;28;20047;-57
2023/09/02 15:58:50;;;;;;;2.83;1.70;;;21.50;59.30;;;;;;21091585;28;20048;-58
2023/09/02 16:08:51;;;;;;;3.00;1.63;;;21.60;59.00;;;;;;21090697;28;20075;-57
2023/09/02 16:18:52;;;;;;;3.15;1.75;;;21.60;59.00;;;;;;21089687;28;20063;-57
2023/09/02 16:28:53;;;;;;;2.92;1.75;;;21.70;58.70;;;;;;21089367;28;20044;-58
2023/09/02 16:38:55;;;;;;;6.03;1.63;;;21.80;58.20;;;;;;21087564;28;20048;-57
2023/09/02 16:48:56;;;;;;;2.83;1.70;;;21.70;58.30;;;;;;21087647;28;20042;-57
2023/09/02 16:58:57;;;;;;;3.42;1.70;;;;;;;;;;21087584;28;20076;-57
2023/09/02 17:09:04;;;;;;;3.08;1.65;;;21.70;58.50;;;;;;21085304;28;20052;-58
2023/09/02 17:19:04;;;;;;;3.33;1.38;;;21.80;57.90;;;;;;21085916;28;20040;-57
2023/09/02 17:29:05;;;;;;;3.15;1.50;;;21.70;57.80;;;;;;21083582;28;20052;-58
2023/09/02 17:39:06;;;;;;;3.15;1.70;;;21.60;58.10;;;;;;21083766;28;20140;-57
2023/09/02 17:49:06;;;;;;;6.35;3.25;;;21.60;58.00;;;;;;21082019;28;20481;-57
2023/09/02 17:59:07;;;;;;;6.95;3.30;;;21.60;60.80;;;;;;21081687;28;20083;-58
2023/09/02 18:09:08;;;;;;;6.95;3.50;;;21.30;63.60;;;;;;21081356;28;20044;-57
2023/09/02 18:19:09;;;;;;;10.00;6.65;;;20.90;68.70;;;;;;21079948;28;20036;-57
2023/09/02 18:29:09;;;;;;;8.82;6.00;;;20.40;70.80;;;;;;21080554;28;20119;-58
2023/09/02 18:39:10;;;;;;;6.28;2.70;;;20.20;70.30;;;;;;21079164;28;20087;-57
2023/09/02 18:49:13;;;;;;;5.32;2.08;;;19.90;72.20;;;;;;21079439;28;20080;-59
2023/09/02 18:59:14;;;;;;;3.33;1.80;;;20.10;67.20;;;;;;21079054;28;20055;-58
2023/09/02 19:09:15;;;;;;;5.78;2.33;;;20.10;68.60;;;;;;21077593;28;20040;-56
2023/09/02 19:19:16;;;;;;;5.75;2.60;;;19.80;71.00;;;;;;21078148;28;20068;-57
2023/09/02 19:29:16;;;;;;;9.68;3.00;;;19.10;74.80;;;;;;21076885;28;20040;-58
2023/09/02 19:39:19;;;;;;;4.72;2.38;;;19.10;74.60;;;;;;21075814;28;20132;-57
2023/09/02 19:49:22;;;;;;;3.88;2.22;;;19.00;76.00;;;;;;21076193;28;20119;-57
2023/09/02 19:59:23;;;;;;;8.02;2.50;;;19.00;75.40;;;;;;21078353;28;20044;-58
2023/09/02 20:09:24;;;;;;;5.28;2.15;;;18.70;77.00;;;;;;21091633;28;20043;-57
2023/09/02 20:19:26;;;;;;;9.13;3.38;;;18.70;76.80;;;;;;21090791;28;20048;-59
2023/09/02 20:29:27;;;;;;;7.10;3.77;;;18.70;77.00;;;;;;21089385;28;20040;-58
2023/09/02 20:39:28;;;;;;;3.63;2.40;;;18.70;77.80;;;;;;21087988;28;20139;-57
2023/09/02 20:49:29;;;;;;;5.78;2.80;;;18.70;76.80;;;;;;21087070;28;20493;-57
2023/09/02 20:59:30;;;;;;;9.02;3.60;;;18.80;77.40;;;;;;21086300;28;20086;-57
2023/09/02 21:09:31;;;;;;;6.25;2.80;;;18.70;77.60;;;;;;21085424;28;20044;-57
2023/09/02 21:19:36;;;;;;;6.82;3.30;;;18.70;77.50;;;;;;21086025;28;20043;-57
2023/09/02 21:29:37;;;;;;;6.70;3.60;;;18.70;78.40;;;;;;21085593;28;20068;-58
2023/09/02 21:39:38;;;;;;;8.90;3.55;;;18.70;78.10;;;;;;21083527;28;20091;-57
2023/09/02 21:49:38;;;;;;;13.90;3.50;;;18.80;78.90;;;;;;21083942;28;20102;-59
2023/09/02 21:59:39;;;;;;;7.65;3.15;;;18.90;78.40;;;;;;21083214;28;20088;-59
2023/09/02 22:09:40;;;;;;;7.07;3.00;;;18.80;77.50;;;;;;21082337;28;20123;-58
2023/09/02 22:19:41;;;;;;;5.40;2.25;;;18.70;77.60;;;;;;21081802;28;20040;-58
2023/09/02 22:29:41;;;;;;;6.43;2.40;;;18.70;77.30;;;;;;21079067;28;20126;-58
2023/09/02 22:39:42;;;;;;;6.68;3.67;;;18.80;77.10;;;;;;21081005;28;20135;-58
2023/09/02 22:49:43;;;;;;;7.85;3.03;;;18.70;77.50;;;;;;21079808;28;20044;-58
2023/09/02 22:59:43;;;;;;;4.18;2.45;;;18.70;77.80;;;;;;21079508;28;20073;-57
2023/09/02 23:09:44;;;;;;;5.68;3.25;;;18.80;78.40;;;;;;21079156;28;20044;-57
2023/09/02 23:19:45;;;;;;;3.88;1.88;;;18.80;79.30;;;;;;21077394;28;20105;-57
2023/09/02 23:29:47;;;;;;;2.78;1.73;;;18.80;77.70;;;;;;21076846;28;20505;-57
2023/09/02 23:39:47;;;;;;;5.82;2.72;;;18.70;78.30;;;;;;21086602;28;20149;-58
2023/09/02 23:49:49;;;;;;;6.85;2.92;;;18.80;78.70;;;;;;21093035;28;20488;-57
2023/09/02 23:59:50;;;;;;;7.32;2.78;;;18.40;80.40;;;;;;21092345;28;20044;-56
